<<    Juni 2012    >>
Datum    Temp.       Tempmin      Tempmax    Taup.       Taup.min      Taup.max    Feuchte    Feuchtemin    Feuchtemax    Druck    Druckmin    Druckmax    Regen    Wind    Benmax  
  01.06.2012  15,5    13,5    03:06    18,3    15:27  10,7    8,4    23:18    14,1    00:00  74,4    58    13:08    98    00:00  1017,2    1014    00:02    1019    12:02  0,0  4,2  17,6  
  02.06.2012  15,4    10,1    05:53    21,4    17:07  5,2    2,2    21:07    8,7    00:24  53,4    33    17:12    81    06:35  1016,7    1013    20:31    1019    01:01  0,0  2,8  14,8  
  03.06.2012  12,0    9,9    23:33    13,9    00:00  9,1    2,8    01:57    13,6    14:08  84,4    49    00:00    98    23:59  1008,7    1004    12:31    1015    00:16  11,4  2,1  11,9  
  04.06.2012  12,7    8,7    21:20    19,7    12:42  11,0    8,4    21:20    14,9    09:43  90,4    55    13:09    98    00:00  1010,4    1007    13:16    1016    23:01  3,7  2,7  27,4  
  05.06.2012  12,9    7,7    06:33    19,1    17:30  6,2    2,9    15:18    10,1    08:26  68,5    35    17:44    98    00:00  1017,5    1014    22:45    1021    13:30  0,9  2,2  17,3  
  06.06.2012  14,5    10,8    09:35    19,8    17:29  10,7    5,2    00:01    17,3    15:49  79,4    58    00:00    98    09:26  1008,1    1005    11:45    1014    00:00  7,7  2,6  16,2  
  07.06.2012  18,8    14,4    05:39    24,9    15:40  13,9    11,7    00:00    16,4    11:19  74,8    47    15:58    94    10:19  1004,0    999    18:45    1008    00:00  0,0  2,6  17,3  
  08.06.2012  18,3    14,2    03:46    23,8    15:25  10,5    5,7    19:41    14,6    00:00  62,7    36    15:34    87    04:33  1006,5    1002    00:15    1010    21:14  0,0  2,9  20,9  
  09.06.2012  15,9    11,9    06:41    20,3    16:17  6,0    3,0    11:45    10,7    00:18  53,8    34    16:19    79    01:15  1013,7    1010    00:00    1015    11:14  0,0  3,4  20,5  
  10.06.2012  16,6    9,8    05:01    23,4    17:04  6,5    4,6    18:09    9,3    08:14  53,6    31    17:11    79    06:28  1011,6    1007    23:59    1015    01:58  0,0  1,3  10,4  
  11.06.2012  16,5    13,2    23:59    21,0    16:19  11,0    6,6    00:15    15,4    19:29  71,6    49    00:00    98    18:32  1003,5    1001    16:44    1007    00:00  9,4  1,4  16,6  
  12.06.2012  16,5    13,1    00:49    21,3    16:35  13,2    11,1    18:29    16,5    09:59  82,6    55    16:36    98    00:00  1003,9    1002    00:00    1009    23:59  0,0  2,6  14,8  
  13.06.2012  14,0    12,0    05:25    15,8    17:30  9,9    7,7    17:22    13,4    01:51  76,9    59    17:22    94    01:51  1014,2    1009    00:00    1019    23:43  0,0  2,8  13,0  
  14.06.2012  15,5    11,9    05:03    20,6    16:38  9,3    6,4    20:04    11,5    09:04  68,8    43    18:59    92    04:13  1019,1    1017    19:28    1021    09:13  0,0  1,3  9,4  
  15.06.2012  16,8    13,7    00:00    21,8    17:52  13,4    9,6    00:00    18,7    15:55  81,2    64    18:09    98    11:44  1014,8    1013    11:13    1018    00:00  3,7  1,6  13,0  
  16.06.2012  16,6    14,0    23:53    18,2    11:18  15,4    12,6    23:20    17,7    11:07  92,9    82    21:06    98    02:08  1014,2    1011    06:13    1016    23:59  3,9  2,0  17,3  
  17.06.2012  17,9    12,3    05:16    24,2    17:41  10,5    7,5    15:38    13,7    08:07  66,0    37    14:39    97    05:39  1019,9    1016    00:00    1022    09:27  0,0  2,4  13,7  
  18.06.2012  18,2    12,3    05:08    24,0    13:27  12,4    9,8    14:22    16,3    11:26  70,5    44    14:22    92    05:48  1015,4    1009    09:57    1020    22:27  0,0  2,9  19,4  
  19.06.2012  17,7    14,1    04:53    21,3    11:44  13,7    11,6    12:13    16,3    18:11  77,9    56    11:57    92    05:11  1019,1    1015    23:59    1022    02:58  0,0  1,2  10,1  
  20.06.2012  17,9    15,2    06:43    22,2    17:34  16,3    14,1    00:04    21,3    16:10  90,6    72    19:27    98    06:11  1013,7    1012    23:59    1016    00:26  6,7  1,9  13,7  
  21.06.2012  19,4    13,8    04:15    25,0    17:47  15,8    13,5    04:15    18,5    08:29  81,7    59    17:48    98    00:45  1009,7    1006    18:11    1013    00:57  0,9  1,6  22,0  
  22.06.2012  17,5    12,7    05:11    22,4    16:34  10,5    6,8    19:30    15,8    00:00  66,8    41    19:14    98    01:40  1016,3    1010    00:00    1021    23:41  0,0  2,5  20,9  
  23.06.2012  18,0    13,0    02:55    23,6    14:36  8,7    6,2    12:40    10,8    08:48  57,1    35    13:30    78    03:09  1022,2    1020    00:00    1024    11:26  0,0  2,5  24,8  
  24.06.2012  16,4    13,6    23:58    19,8    11:04  11,5    8,6    00:32    15,0    17:13  74,0    53    11:17    97    16:48  1015,3    1011    15:40    1022    00:10  3,9  3,0  19,4  
  25.06.2012  15,9    12,7    03:02    19,6    17:41  11,2    7,9    21:46    14,6    12:08  75,2    49    17:11    95    02:03  1016,2    1013    04:25    1020    21:55  0,0  3,9  23,0  
  26.06.2012  17,1    10,1    05:07    24,0    16:59  9,1    7,1    18:08    12,3    08:35  63,2    35    17:03    94    06:26  1021,0    1020    00:00    1023    08:40  0,0  1,7  13,7  
  27.06.2012  19,1    15,1    00:27    22,8    15:20  16,0    10,1    00:14    20,3    15:15  82,3    71    00:00    95    23:59  1017,9    1014    22:11    1021    00:11  0,0  1,6  12,6  
  28.06.2012  24,1    17,7    03:43    31,7    15:56  17,6    14,9    22:54    20,4    09:03  71,1    40    15:48    98    02:01  1009,0    1004    17:26    1014    00:00  0,0  2,4  17,6  
  29.06.2012  21,2    16,8    23:59    26,8    12:10  19,2    15,8    23:58    22,6    16:01  88,8    63    00:00    98    03:52  1006,9    1005    00:09    1011    23:24  4,6  1,3  12,2  
  30.06.2012  20,8    14,9    04:42    27,6    15:56  14,8    12,2    14:20    16,6    08:24  71,4    40    15:43    96    01:12  1011,0    1009    01:24    1013    07:40  0,0  2,3  16,2  
 
  Gesamt  17,0  7,7            31,7            11,6  2,2            22,6            73,5  31            98            1013,2  999            1024            56,7  2,3  27,4  
 
  Mittelwert  17,0  12,8            21,9            11,6  8,5            15,2            73,5  49,4            93,8            1013,2  1009,7            1016,8            1,9  2,3  16,6  
  Minimum  12,0  7,7            13,9            5,2  2,2            8,7            53,4  31,0            78,0            1003,5  999,0            1007,0            0,0  1,2  9,4  
  Maximum  24,1  17,7            31,7            19,2  15,8            22,6            92,9  82,0            98,0            1022,2  1020,0            1024,0            11,4  4,2  27,4  

  Heie Tage    Tmax >=30C     1  
  Sommertage    Tmax >=25C     4  
  Warme Tage    Tmax >=20C     21  
  Kalte Tage    Tmax  <10C     0  
  Frosttage    Tmin  <0C     0  
  Eistage    Tmax  <0C     0  
  Regentage > 0 mm    11  
  Regentage > 2 mm    9  
  Regentage > 10 mm    1  
  Regentage > 20 mm    0